createdAt,value
2023-04-12T00:01:40.578Z,79.10
2023-04-12T00:04:14.777Z,79.33
2023-04-12T00:06:48.807Z,79.11
2023-04-12T00:09:21.760Z,79.44
2023-04-12T00:11:54.032Z,79.40
2023-04-12T00:14:26.208Z,79.32
2023-04-12T00:16:58.442Z,79.52
2023-04-12T00:19:31.275Z,79.60
2023-04-12T00:22:03.753Z,79.58
2023-04-12T00:24:35.956Z,79.68
2023-04-12T00:27:08.443Z,79.51
2023-04-12T00:29:41.595Z,79.72
2023-04-12T00:32:14.919Z,79.36
2023-04-12T00:34:47.056Z,79.27
2023-04-12T00:37:19.200Z,79.54
2023-04-12T00:39:51.623Z,79.07
2023-04-12T00:42:23.808Z,79.26
2023-04-12T00:44:56.336Z,79.16
2023-04-12T00:47:29.818Z,79.36
2023-04-12T00:50:03.146Z,79.10
2023-04-12T00:52:35.919Z,79.18
2023-04-12T00:55:10.761Z,79.14
2023-04-12T00:57:43.019Z,79.26
2023-04-12T01:00:17.675Z,79.37
2023-04-12T01:02:51.102Z,79.45
2023-04-12T01:05:25.262Z,79.34
2023-04-12T01:08:12.183Z,79.46
2023-04-12T01:10:57.849Z,79.68
2023-04-12T01:13:34.848Z,79.75
2023-04-12T01:16:13.634Z,79.81
2023-04-12T01:18:52.283Z,79.71
2023-04-12T01:21:33.043Z,79.86
2023-04-12T01:24:25.083Z,80.09
2023-04-12T01:27:00.868Z,80.27
2023-04-12T01:29:33.352Z,80.20
2023-04-12T01:32:06.849Z,79.90
2023-04-12T01:34:41.637Z,79.64
2023-04-12T01:37:14.330Z,79.28
2023-04-12T01:39:46.644Z,79.50
2023-04-12T01:42:23.082Z,79.33
2023-04-12T01:44:55.365Z,78.92
2023-04-12T01:47:28.544Z,78.45
2023-04-12T01:50:13.404Z,78.12
2023-04-12T01:52:54.225Z,77.99
2023-04-12T01:55:28.076Z,78.16
2023-04-12T01:58:03.642Z,78.41
2023-04-12T02:00:38.166Z,78.33
2023-04-12T02:03:12.604Z,78.28
2023-04-12T02:05:45.558Z,78.47
2023-04-12T02:08:17.748Z,78.27
2023-04-12T02:10:51.679Z,78.52
2023-04-12T02:13:23.819Z,78.51
2023-04-12T02:15:55.916Z,78.65
2023-04-12T02:18:28.192Z,79.04
2023-04-12T02:21:00.874Z,78.95
2023-04-12T02:23:33.747Z,79.29
2023-04-12T02:26:06.205Z,79.25
2023-04-12T02:28:39.382Z,79.16
2023-04-12T02:31:13.488Z,79.14
2023-04-12T02:33:45.964Z,79.07
2023-04-12T02:36:18.650Z,79.18
2023-04-12T02:38:51.951Z,78.76
2023-04-12T02:41:27.444Z,79.00
2023-04-12T02:44:00.077Z,78.86
2023-04-12T02:46:32.465Z,78.89
2023-04-12T02:49:05.345Z,78.86
2023-04-12T02:51:41.939Z,79.02
2023-04-12T02:54:15.802Z,78.75
2023-04-12T02:56:59.685Z,78.96
2023-04-12T02:59:54.559Z,79.29
2023-04-12T03:02:30.181Z,79.23
2023-04-12T03:05:05.140Z,79.05
2023-04-12T03:07:45.293Z,78.99
2023-04-12T03:10:17.863Z,78.93
2023-04-12T03:12:54.469Z,78.84
2023-04-12T03:15:28.370Z,78.81
2023-04-12T03:18:01.790Z,78.69
2023-04-12T03:20:36.912Z,78.58
2023-04-12T03:23:12.230Z,78.71
2023-04-12T03:25:48.891Z,78.50
2023-04-12T03:28:33.600Z,78.40
2023-04-12T03:31:07.920Z,78.16
2023-04-12T03:33:51.530Z,78.08
2023-04-12T03:36:34.156Z,77.81
2023-04-12T03:39:15.047Z,78.19
2023-04-12T03:41:48.089Z,77.85
2023-04-12T03:44:21.443Z,77.77
2023-04-12T03:46:55.321Z,77.64
2023-04-12T03:49:29.050Z,77.90
2023-04-12T03:52:02.017Z,77.92
2023-04-12T03:54:34.339Z,77.93
2023-04-12T03:57:10.655Z,77.93
2023-04-12T03:59:48.915Z,78.38
2023-04-12T04:02:21.421Z,78.46
2023-04-12T04:04:55.644Z,78.71
2023-04-12T04:07:33.196Z,78.24
2023-04-12T04:10:07.043Z,77.83
2023-04-12T04:12:41.147Z,77.68
2023-04-12T04:15:17.784Z,77.75
2023-04-12T04:17:50.175Z,78.11
2023-04-12T04:20:25.029Z,77.87
2023-04-12T04:22:58.370Z,78.05
2023-04-12T04:25:31.575Z,78.42
2023-04-12T04:28:08.030Z,78.32
2023-04-12T04:30:40.365Z,78.46
2023-04-12T04:33:16.246Z,78.81
2023-04-12T04:35:49.859Z,78.70
2023-04-12T04:38:28.620Z,78.60
2023-04-12T04:41:10.566Z,78.29
2023-04-12T04:43:54.457Z,78.13
2023-04-12T04:46:30.652Z,78.14
2023-04-12T04:49:02.922Z,77.93
2023-04-12T04:51:36.871Z,77.85
2023-04-12T04:54:09.919Z,78.23
2023-04-12T04:56:44.446Z,78.35
2023-04-12T04:59:20.200Z,78.52
2023-04-12T05:01:52.830Z,78.98
2023-04-12T05:04:25.369Z,78.93
2023-04-12T05:06:59.358Z,78.49
2023-04-12T05:09:32.442Z,78.20
2023-04-12T05:12:05.232Z,78.17
2023-04-12T05:14:47.223Z,78.82
2023-04-12T05:17:23.633Z,78.80
2023-04-12T05:19:56.122Z,78.48
2023-04-12T05:22:29.789Z,78.53
2023-04-12T05:25:03.284Z,78.78
2023-04-12T05:27:37.463Z,79.19
2023-04-12T05:30:12.591Z,79.03
2023-04-12T05:32:45.022Z,78.58
2023-04-12T05:35:18.238Z,78.24
2023-04-12T05:37:51.120Z,78.47
2023-04-12T05:40:23.494Z,78.36
2023-04-12T05:42:56.761Z,78.51
2023-04-12T05:45:29.561Z,78.62
2023-04-12T05:48:04.449Z,78.88
2023-04-12T05:50:37.222Z,79.44
2023-04-12T05:53:10.746Z,79.33
2023-04-12T05:55:43.088Z,79.00
2023-04-12T05:58:15.838Z,78.96
2023-04-12T06:00:51.883Z,78.25
2023-04-12T06:03:25.837Z,78.24
2023-04-12T06:06:02.755Z,77.95
2023-04-12T06:08:36.662Z,77.81
2023-04-12T06:11:12.246Z,77.94
2023-04-12T06:13:45.583Z,77.87
2023-04-12T06:16:18.090Z,78.18
2023-04-12T06:18:50.697Z,77.65
2023-04-12T06:21:24.583Z,77.33
2023-04-12T06:23:57.138Z,77.31
2023-04-12T06:26:38.985Z,76.64
2023-04-12T06:29:12.880Z,76.57
2023-04-12T06:31:45.381Z,77.02
2023-04-12T06:34:17.628Z,76.18
2023-04-12T06:36:50.341Z,76.23
2023-04-12T06:39:22.566Z,76.33
2023-04-12T06:41:56.117Z,75.96
2023-04-12T06:44:28.526Z,75.85
2023-04-12T06:47:01.019Z,75.35
2023-04-12T06:49:36.642Z,75.95
2023-04-12T06:52:09.166Z,75.76
2023-04-12T06:54:42.844Z,74.95
2023-04-12T06:57:15.208Z,75.11
2023-04-12T06:59:47.416Z,74.80
2023-04-12T07:02:19.761Z,74.32
2023-04-12T07:04:55.130Z,73.76
2023-04-12T07:07:27.387Z,73.74
2023-04-12T07:10:00.595Z,73.90
2023-04-12T07:12:32.848Z,73.37
2023-04-12T07:15:05.521Z,73.44
2023-04-12T07:17:38.166Z,72.80
2023-04-12T07:20:12.447Z,72.38
2023-04-12T07:22:44.999Z,71.91
2023-04-12T07:25:17.367Z,71.28
2023-04-12T07:27:51.723Z,70.04
2023-04-12T07:30:24.503Z,70.10
2023-04-12T07:33:08.307Z,70.18
2023-04-12T07:35:45.113Z,69.63
2023-04-12T07:38:17.873Z,69.45
2023-04-12T07:40:50.393Z,68.13
2023-04-12T07:43:23.066Z,68.97
2023-04-12T07:45:57.439Z,69.14
2023-04-12T07:48:29.827Z,69.01
2023-04-12T07:51:03.025Z,67.88
2023-04-12T07:53:35.293Z,67.29
2023-04-12T07:56:08.730Z,67.46
2023-04-12T07:58:41.469Z,66.69
2023-04-12T08:01:17.330Z,64.93
2023-04-12T08:03:49.993Z,65.52
2023-04-12T08:06:22.381Z,65.67
2023-04-12T08:08:54.749Z,65.35
2023-04-12T08:11:27.034Z,64.70
2023-04-12T08:13:59.706Z,65.55
2023-04-12T08:16:32.723Z,66.09
2023-04-12T08:19:05.214Z,66.82
2023-04-12T08:21:37.546Z,65.45
2023-04-12T08:24:10.664Z,65.52
2023-04-12T08:26:43.316Z,64.34
2023-04-12T08:29:15.892Z,64.16
2023-04-12T08:31:48.574Z,63.59
2023-04-12T08:34:22.688Z,64.23
2023-04-12T08:36:55.266Z,64.72
2023-04-12T08:39:27.762Z,65.72
2023-04-12T08:42:00.724Z,64.62
2023-04-12T08:44:39.074Z,63.73
2023-04-12T08:47:12.636Z,61.91
2023-04-12T08:49:45.464Z,62.89
2023-04-12T08:52:18.471Z,62.42
2023-04-12T08:54:50.886Z,62.20
2023-04-12T08:57:23.783Z,61.87
2023-04-12T08:59:56.996Z,60.63
2023-04-12T09:02:30.178Z,60.42
2023-04-12T09:05:03.113Z,59.77
2023-04-12T09:07:37.288Z,59.29
2023-04-12T09:10:11.955Z,59.15
2023-04-12T09:12:51.061Z,60.26
2023-04-12T09:15:25.354Z,59.66
2023-04-12T09:18:09.609Z,60.62
2023-04-12T09:20:42.106Z,60.47
2023-04-12T09:23:25.409Z,59.17
2023-04-12T09:25:57.864Z,58.67
2023-04-12T09:28:32.090Z,59.72
2023-04-12T09:31:04.787Z,60.13
2023-04-12T09:33:39.501Z,59.36
2023-04-12T09:36:14.599Z,58.52
2023-04-12T09:39:02.592Z,58.77
2023-04-12T09:41:35.162Z,58.93
2023-04-12T09:44:07.527Z,59.10
2023-04-12T09:46:53.263Z,60.32
2023-04-12T09:49:41.909Z,59.92
2023-04-12T09:52:13.107Z,59.06
2023-04-12T09:55:00.274Z,59.14
2023-04-12T09:57:35.431Z,56.96
2023-04-12T10:00:14.695Z,55.48
2023-04-12T10:02:50.342Z,56.39
2023-04-12T10:05:27.157Z,54.18
2023-04-12T10:08:01.663Z,54.83
2023-04-12T10:10:36.216Z,54.31
2023-04-12T10:13:10.911Z,52.00
2023-04-12T10:15:43.438Z,50.61
2023-04-12T10:18:19.468Z,50.05
2023-04-12T10:20:52.983Z,48.03
2023-04-12T10:23:27.300Z,46.21
2023-04-12T10:26:00.357Z,47.83
2023-04-12T10:28:33.715Z,46.46
2023-04-12T10:31:31.421Z,47.60
2023-04-12T10:34:07.192Z,45.45
2023-04-12T10:36:59.216Z,43.99
2023-04-12T10:39:43.196Z,45.28
2023-04-12T10:42:24.510Z,45.08
2023-04-12T10:45:01.001Z,46.02
2023-04-12T10:48:02.062Z,45.87
2023-04-12T10:50:35.567Z,44.98
2023-04-12T10:53:29.209Z,43.78
2023-04-12T10:56:38.696Z,41.65
2023-04-12T10:59:12.045Z,42.00
2023-04-12T11:02:13.957Z,43.08
2023-04-12T11:05:10.447Z,40.82
2023-04-12T11:08:03.106Z,41.97
2023-04-12T11:10:47.356Z,41.63
2023-04-12T11:13:40.486Z,40.34
2023-04-12T11:16:14.164Z,40.52
2023-04-12T11:18:49.347Z,40.25
2023-04-12T11:21:22.578Z,39.19
2023-04-12T11:23:56.733Z,39.81
2023-04-12T11:26:34.740Z,39.13
2023-04-12T11:29:16.973Z,39.26
2023-04-12T11:31:49.433Z,39.39
2023-04-12T11:34:23.588Z,38.30
2023-04-12T11:36:56.703Z,38.83
2023-04-12T11:39:31.314Z,37.25
2023-04-12T11:42:04.108Z,40.49
2023-04-12T11:44:54.502Z,38.80
2023-04-12T11:47:29.262Z,38.81
2023-04-12T11:50:02.144Z,39.60
2023-04-12T11:52:35.890Z,38.78
2023-04-12T11:55:11.442Z,38.59
2023-04-12T11:57:43.745Z,38.24
2023-04-12T12:00:18.296Z,37.25
2023-04-12T12:03:06.848Z,37.48
2023-04-12T12:05:43.284Z,37.71
2023-04-12T12:08:14.709Z,37.12
2023-04-12T12:11:06.415Z,36.97
2023-04-12T12:13:52.216Z,36.32
2023-04-12T12:16:30.526Z,34.99
2023-04-12T12:19:06.560Z,35.26
2023-04-12T12:21:38.781Z,34.35
2023-04-12T12:24:15.644Z,34.57
2023-04-12T12:26:50.712Z,34.91
2023-04-12T12:29:25.351Z,32.94
2023-04-12T12:31:58.326Z,33.31
2023-04-12T12:34:35.745Z,33.92
2023-04-12T12:37:11.692Z,33.37
2023-04-12T12:40:07.431Z,32.69
2023-04-12T12:42:47.058Z,32.65
2023-04-12T12:45:22.087Z,31.88
2023-04-12T12:47:56.733Z,32.44
2023-04-12T12:50:30.906Z,33.02
2023-04-12T12:53:06.682Z,32.01
2023-04-12T12:55:39.460Z,29.45
2023-04-12T12:58:11.963Z,31.53
2023-04-12T13:00:44.293Z,30.81
2023-04-12T13:03:17.012Z,29.62
2023-04-12T13:05:49.723Z,28.89
2023-04-12T13:08:23.066Z,28.93
2023-04-12T13:10:56.069Z,27.49
2023-04-12T13:13:28.464Z,27.75
2023-04-12T13:16:01.491Z,27.39
2023-04-12T13:18:33.934Z,27.29
2023-04-12T13:21:06.769Z,26.93
2023-04-12T13:23:41.206Z,26.10
2023-04-12T13:26:13.616Z,25.91
2023-04-12T13:28:45.803Z,26.43
2023-04-12T13:31:18.288Z,25.72
2023-04-12T13:33:50.639Z,25.37
2023-04-12T13:36:23.073Z,25.38
2023-04-12T13:38:55.536Z,26.52
2023-04-12T13:41:31.253Z,27.28
2023-04-12T13:44:04.273Z,25.12
2023-04-12T13:46:36.655Z,24.67
2023-04-12T13:49:09.606Z,23.11
2023-04-12T13:51:41.871Z,23.32
2023-04-12T13:54:15.818Z,23.09
2023-04-12T13:56:48.140Z,22.94
2023-04-12T13:59:20.588Z,22.92
2023-04-12T14:01:53.212Z,21.77
2023-04-12T14:04:28.784Z,21.91
2023-04-12T14:07:00.146Z,21.00
2023-04-12T14:09:34.100Z,21.65
2023-04-12T14:12:06.236Z,20.90
2023-04-12T14:14:38.977Z,20.87
2023-04-12T14:17:11.803Z,20.49
2023-04-12T14:19:44.589Z,21.27
2023-04-12T14:22:16.782Z,21.15
2023-04-12T14:24:48.851Z,21.19
2023-04-12T14:27:21.496Z,20.83
2023-04-12T14:29:54.008Z,21.06
2023-04-12T14:32:27.391Z,21.20
2023-04-12T14:35:00.074Z,22.08
2023-04-12T14:37:32.979Z,21.45
2023-04-12T14:40:08.644Z,21.28
2023-04-12T14:42:41.365Z,21.85
2023-04-12T14:45:15.888Z,21.25
2023-04-12T14:47:48.858Z,19.96
2023-04-12T14:50:22.428Z,19.78
2023-04-12T14:52:54.623Z,20.38
2023-04-12T14:55:27.242Z,18.98
2023-04-12T14:57:59.805Z,19.63
2023-04-12T15:00:33.093Z,20.02
2023-04-12T15:03:07.412Z,19.95
2023-04-12T15:05:40.298Z,19.40
2023-04-12T15:08:12.460Z,19.71
2023-04-12T15:10:44.748Z,19.54
2023-04-12T15:13:17.281Z,19.33
2023-04-12T15:15:49.874Z,18.91
2023-04-12T15:18:22.111Z,19.46
2023-04-12T15:20:54.243Z,19.24
2023-04-12T15:23:26.713Z,19.57
2023-04-12T15:26:02.464Z,19.18
2023-04-12T15:28:34.755Z,20.18
2023-04-12T15:31:08.341Z,20.19
2023-04-12T15:33:40.779Z,20.59
2023-04-12T15:36:13.300Z,20.56
2023-04-12T15:38:45.754Z,22.01
2023-04-12T15:41:18.136Z,23.34
2023-04-12T15:43:50.985Z,24.76
2023-04-12T15:46:23.744Z,25.94
2023-04-12T15:48:57.813Z,27.07
2023-04-12T15:51:30.567Z,28.53
2023-04-12T15:54:02.923Z,29.22
2023-04-12T15:56:35.719Z,30.87
2023-04-12T15:59:07.926Z,31.23
2023-04-12T16:01:40.609Z,32.46
2023-04-12T16:04:13.911Z,32.38
2023-04-12T16:06:46.613Z,32.53
2023-04-12T16:09:19.005Z,32.96
2023-04-12T16:11:51.591Z,34.01
2023-04-12T16:14:28.043Z,34.39
2023-04-12T16:17:00.426Z,36.10
2023-04-12T16:19:33.639Z,36.07
2023-04-12T16:22:07.137Z,37.35
2023-04-12T16:24:41.268Z,36.95
2023-04-12T16:27:14.986Z,39.10
2023-04-12T16:29:47.913Z,38.48
2023-04-12T16:32:20.636Z,38.41
2023-04-12T16:34:53.148Z,38.22
2023-04-12T16:37:25.346Z,38.73
2023-04-12T16:39:57.795Z,38.86
2023-04-12T16:42:31.945Z,39.51
2023-04-12T16:45:05.022Z,39.33
2023-04-12T16:47:37.945Z,38.91
2023-04-12T16:50:13.540Z,40.42
2023-04-12T16:52:46.239Z,40.44
2023-04-12T16:55:18.422Z,40.52
2023-04-12T16:57:53.467Z,41.09
2023-04-12T17:00:29.269Z,41.49
2023-04-12T17:03:01.518Z,42.65
2023-04-12T17:05:35.152Z,43.28
2023-04-12T17:08:11.005Z,42.38
2023-04-12T17:10:43.908Z,42.63
2023-04-12T17:13:20.430Z,43.12
2023-04-12T17:15:53.390Z,44.12
2023-04-12T17:18:27.041Z,43.03
2023-04-12T17:20:59.549Z,42.34
2023-04-12T17:23:32.025Z,42.06
2023-04-12T17:26:04.333Z,42.93
2023-04-12T17:28:39.374Z,42.71
2023-04-12T17:31:11.679Z,44.26
2023-04-12T17:33:44.358Z,46.04
2023-04-12T17:36:17.005Z,45.14
2023-04-12T17:38:49.504Z,46.32
2023-04-12T17:41:21.768Z,45.72
2023-04-12T17:43:54.564Z,45.22
2023-04-12T17:46:27.549Z,45.48
2023-04-12T17:49:02.903Z,45.01
2023-04-12T17:51:35.619Z,45.14
2023-04-12T17:54:08.596Z,46.71
2023-04-12T17:56:42.619Z,46.59
2023-04-12T17:59:15.508Z,46.70
2023-04-12T18:01:48.105Z,46.37
2023-04-12T18:04:21.399Z,46.86
2023-04-12T18:06:54.171Z,46.52
2023-04-12T18:09:28.731Z,46.91
2023-04-12T18:12:01.322Z,47.84
2023-04-12T18:14:34.728Z,48.20
2023-04-12T18:17:07.224Z,48.00
2023-04-12T18:19:40.018Z,47.53
2023-04-12T18:22:12.559Z,49.64
2023-04-12T18:24:45.064Z,49.73
2023-04-12T18:27:17.335Z,49.11
2023-04-12T18:29:50.220Z,49.27
2023-04-12T18:32:22.747Z,49.94
2023-04-12T18:34:55.272Z,49.54
2023-04-12T18:37:28.609Z,50.16
2023-04-12T18:40:00.869Z,50.52
2023-04-12T18:42:33.128Z,50.65
2023-04-12T18:45:06.802Z,51.06
2023-04-12T18:47:40.682Z,50.96
2023-04-12T18:50:14.332Z,54.58
2023-04-12T18:52:47.091Z,54.84
2023-04-12T18:55:19.686Z,53.00
2023-04-12T18:57:52.438Z,55.48
2023-04-12T19:00:26.101Z,55.19
2023-04-12T19:03:00.007Z,54.85
2023-04-12T19:05:35.609Z,53.31
2023-04-12T19:08:10.433Z,54.32
2023-04-12T19:10:44.012Z,55.02
2023-04-12T19:13:18.071Z,56.14
2023-04-12T19:15:55.580Z,57.60
2023-04-12T19:18:31.655Z,55.16
2023-04-12T19:21:07.687Z,54.64
2023-04-12T19:23:41.401Z,56.00
2023-04-12T19:26:17.369Z,55.61
2023-04-12T19:28:55.807Z,58.46
2023-04-12T19:31:29.894Z,59.07
2023-04-12T19:34:05.697Z,59.28
2023-04-12T19:36:37.910Z,59.89
2023-04-12T19:39:12.743Z,57.71
2023-04-12T19:41:48.809Z,56.63
2023-04-12T19:44:23.626Z,56.10
2023-04-12T19:46:58.150Z,56.28
2023-04-12T19:49:33.606Z,55.64
2023-04-12T19:52:07.681Z,58.88
2023-04-12T19:54:40.871Z,59.38
2023-04-12T19:57:14.532Z,59.08
2023-04-12T19:59:47.411Z,60.41
2023-04-12T20:02:20.437Z,57.57
2023-04-12T20:04:53.690Z,58.92
2023-04-12T20:07:26.777Z,60.14
2023-04-12T20:10:00.799Z,61.39
2023-04-12T20:12:34.172Z,61.10
2023-04-12T20:15:08.499Z,59.05
2023-04-12T20:17:42.608Z,58.74
2023-04-12T20:20:15.702Z,58.35
2023-04-12T20:22:52.205Z,60.22
2023-04-12T20:25:26.067Z,61.10
2023-04-12T20:27:58.858Z,59.20
2023-04-12T20:30:32.041Z,58.96
2023-04-12T20:33:04.578Z,58.64
2023-04-12T20:35:38.450Z,58.99
2023-04-12T20:38:10.906Z,60.45
2023-04-12T20:40:43.095Z,59.03
2023-04-12T20:43:15.654Z,59.41
2023-04-12T20:45:49.044Z,59.21
2023-04-12T20:48:22.496Z,60.40
2023-04-12T20:50:56.417Z,61.64
2023-04-12T20:53:30.468Z,60.28
2023-04-12T20:56:02.631Z,59.99
2023-04-12T20:58:35.715Z,60.19
2023-04-12T21:01:14.641Z,61.09
2023-04-12T21:03:47.849Z,61.42
2023-04-12T21:06:20.453Z,61.19
2023-04-12T21:08:53.971Z,60.22
2023-04-12T21:11:27.734Z,61.27
2023-04-12T21:14:00.066Z,60.91
2023-04-12T21:16:32.397Z,61.51
2023-04-12T21:19:04.728Z,61.27
2023-04-12T21:21:37.330Z,60.47
2023-04-12T21:24:09.737Z,63.11
2023-04-12T21:26:43.756Z,62.92
2023-04-12T21:29:15.996Z,63.37
2023-04-12T21:31:49.112Z,63.10
2023-04-12T21:34:21.863Z,62.20
2023-04-12T21:36:55.456Z,63.34
2023-04-12T21:39:28.067Z,61.50
2023-04-12T21:42:00.314Z,60.89
2023-04-12T21:44:34.518Z,60.32
2023-04-12T21:47:06.785Z,60.89
2023-04-12T21:49:38.969Z,60.63
2023-04-12T21:52:11.236Z,60.63
2023-04-12T21:54:43.404Z,60.00
2023-04-12T21:57:16.314Z,60.97
2023-04-12T21:59:48.464Z,62.21
2023-04-12T22:02:20.724Z,60.95
2023-04-12T22:04:53.411Z,61.57
2023-04-12T22:07:27.038Z,60.91
2023-04-12T22:10:00.064Z,61.52
2023-04-12T22:12:33.952Z,62.60
2023-04-12T22:15:07.815Z,63.79
2023-04-12T22:17:40.863Z,62.78
2023-04-12T22:20:14.221Z,63.88
2023-04-12T22:22:46.482Z,62.65
2023-04-12T22:25:19.080Z,62.90
2023-04-12T22:27:53.169Z,62.36
2023-04-12T22:30:26.275Z,63.74
2023-04-12T22:33:00.033Z,62.72
2023-04-12T22:35:34.844Z,62.73
2023-04-12T22:38:07.800Z,62.37
2023-04-12T22:40:39.943Z,62.29
2023-04-12T22:43:18.340Z,62.38
2023-04-12T22:45:54.160Z,64.84
2023-04-12T22:48:26.536Z,63.44
2023-04-12T22:50:59.258Z,63.20
2023-04-12T22:53:33.383Z,63.48
2023-04-12T22:56:05.809Z,63.12
2023-04-12T22:58:40.449Z,62.88
2023-04-12T23:01:12.833Z,63.02
2023-04-12T23:03:46.059Z,62.71
2023-04-12T23:06:19.809Z,62.78
2023-04-12T23:08:52.327Z,62.72
2023-04-12T23:11:24.522Z,63.23
2023-04-12T23:13:57.513Z,63.36
2023-04-12T23:16:30.128Z,63.15
2023-04-12T23:19:04.077Z,63.87
2023-04-12T23:21:36.369Z,63.91
2023-04-12T23:24:11.598Z,64.76
2023-04-12T23:26:45.422Z,64.65
2023-04-12T23:29:17.973Z,66.17
2023-04-12T23:31:51.529Z,65.94
2023-04-12T23:34:23.855Z,67.26
2023-04-12T23:36:56.630Z,67.35
2023-04-12T23:39:28.812Z,67.33
2023-04-12T23:42:01.287Z,66.92
2023-04-12T23:44:33.486Z,66.16
2023-04-12T23:47:05.823Z,65.69
2023-04-12T23:49:38.125Z,65.64
2023-04-12T23:52:10.147Z,65.60
2023-04-12T23:54:42.319Z,65.37
2023-04-12T23:57:14.602Z,65.76
2023-04-12T23:59:46.760Z,65.59
